Time;durP1;ratioP1;P1;durP2;ratioP2;P2;SDS_P1;SDS_P2;PMS_P1;PMS_P2;Temp;Humidity;BMP_temperature;BMP_pressure;BME280_temperature;BME280_humidity;BME280_pressure;Samples;Min_cycle;Max_cycle;Signal;HPM_P1;HPM_P2
2022/05/14 00:08:16;;;;;;;0.20;0.07;;;17.30;99.90;;;;;;26374281;22;20208;-74
2022/05/14 00:18:23;;;;;;;0.20;0.00;;;17.10;99.90;;;;;;26378843;22;20189;-74
2022/05/14 00:28:29;;;;;;;0.20;0.10;;;16.70;99.90;;;;;;26438119;22;20178;-74
2022/05/14 00:38:35;;;;;;;0.20;0.10;;;16.70;99.90;;;;;;26436676;22;20173;-72
2022/05/14 00:48:44;;;;;;;0.20;0.10;;;16.80;99.90;;;;;;26408202;22;20182;-73
2022/05/14 00:58:56;;;;;;;0.20;0.10;;;16.60;99.90;;;;;;26435744;22;20189;-73
2022/05/14 01:09:04;;;;;;;0.20;0.10;;;16.70;99.90;;;;;;26407249;22;20178;-74
2022/05/14 01:19:11;;;;;;;0.20;0.10;;;17.30;99.90;;;;;;26407702;22;20173;-75
2022/05/14 01:29:27;;;;;;;0.20;0.10;;;18.20;99.90;;;;;;26434963;22;20185;-74
2022/05/14 01:39:32;;;;;;;0.20;0.10;;;18.30;99.90;;;;;;26434777;22;20154;-74
2022/05/14 01:49:37;;;;;;;0.20;0.03;;;18.50;99.90;;;;;;26407924;22;20249;-75
2022/05/14 01:59:41;;;;;;;0.20;0.10;;;18.60;99.90;;;;;;26433416;22;20186;-73
2022/05/14 02:09:46;;;;;;;0.20;0.10;;;18.50;99.90;;;;;;26434363;22;20209;-72
2022/05/14 02:19:50;;;;;;;0.20;0.10;;;18.50;99.90;;;;;;26434996;22;20154;-73
2022/05/14 02:29:55;;;;;;;0.20;0.07;;;18.50;99.90;;;;;;26404281;22;20178;-73
2022/05/14 02:39:59;;;;;;;0.20;0.00;;;18.50;99.90;;;;;;26403994;22;20166;-73
2022/05/14 02:50:06;;;;;;;0.20;0.10;;;18.20;99.90;;;;;;26405367;22;20190;-74
2022/05/14 03:00:13;;;;;;;0.20;0.00;;;18.20;99.90;;;;;;26429784;22;21109;-72
2022/05/14 03:10:19;;;;;;;0.20;0.10;;;18.40;99.90;;;;;;26429417;22;20209;-73
2022/05/14 03:20:23;;;;;;;0.20;0.00;;;18.20;99.90;;;;;;26431187;22;20173;-73
2022/05/14 03:30:28;;;;;;;0.20;0.10;;;17.90;99.90;;;;;;26403212;22;20185;-73
2022/05/14 03:40:32;;;;;;;0.20;0.10;;;17.60;99.90;;;;;;26430902;22;20173;-72
2022/05/14 03:50:37;;;;;;;0.20;0.10;;;16.80;99.90;;;;;;26428584;22;20182;-74
2022/05/14 04:00:43;;;;;;;0.20;0.00;;;16.40;99.90;;;;;;26429705;22;20192;-73
2022/05/14 04:10:51;;;;;;;0.20;0.10;;;16.10;99.90;;;;;;26429680;22;20202;-73
2022/05/14 04:20:56;;;;;;;0.20;0.10;;;16.30;99.90;;;;;;26398970;22;20162;-73
2022/05/14 04:31:04;;;;;;;0.20;0.10;;;15.90;99.90;;;;;;26427127;22;20184;-72
2022/05/14 04:41:08;;;;;;;0.20;0.10;;;15.90;99.90;;;;;;26427184;22;20155;-72
2022/05/14 04:51:13;;;;;;;0.20;0.10;;;15.90;99.90;;;;;;26374006;22;20190;-73
2022/05/14 05:01:17;;;;;;;0.20;0.10;;;15.80;99.90;;;;;;26399133;22;20158;-73
2022/05/14 05:11:23;;;;;;;0.20;0.10;;;15.70;99.90;;;;;;26408106;22;20201;-74
2022/05/14 05:21:27;;;;;;;0.20;0.10;;;15.80;99.90;;;;;;26435765;22;20207;-72
2022/05/14 05:31:32;;;;;;;0.20;0.00;;;16.00;99.90;;;;;;26405379;22;20182;-73
2022/05/14 05:41:36;;;;;;;0.20;0.00;;;16.70;99.90;;;;;;26406050;22;20226;-73
2022/05/14 05:51:41;;;;;;;0.20;0.10;;;16.90;99.90;;;;;;26404502;22;20215;-73
2022/05/14 06:01:49;;;;;;;0.20;0.10;;;17.70;99.90;;;;;;26432605;22;20211;-72
2022/05/14 06:11:58;;;;;;;0.20;0.10;;;18.10;99.90;;;;;;26403685;22;20201;-74
2022/05/14 06:22:03;;;;;;;0.20;0.10;;;18.70;99.90;;;;;;26400566;22;20158;-72
2022/05/14 06:32:09;;;;;;;0.20;0.00;;;19.00;99.90;;;;;;26399233;22;20178;-73
2022/05/14 06:42:16;;;;;;;0.20;0.00;;;19.10;99.90;;;;;;26426087;22;20174;-74
2022/05/14 06:52:22;;;;;;;0.20;0.00;;;19.20;99.90;;;;;;26398613;22;20244;-74
2022/05/14 07:02:27;;;;;;;1.53;1.43;;;19.40;99.90;;;;;;26398402;22;20163;-74
2022/05/14 07:12:33;;;;;;;0.20;0.10;;;19.40;99.90;;;;;;26426460;22;20194;-74
2022/05/14 07:22:44;;;;;;;0.20;0.00;;;19.40;99.90;;;;;;26398006;22;20158;-74
2022/05/14 07:32:53;;;;;;;0.20;0.07;;;19.70;99.90;;;;;;26424641;22;20224;-74
2022/05/14 07:43:01;;;;;;;12.57;4.53;;;20.10;99.90;;;;;;26426539;22;20166;-74
2022/05/14 07:53:11;;;;;;;0.20;0.10;;;20.40;99.90;;;;;;26424403;22;20201;-75
2022/05/14 08:03:15;;;;;;;0.20;0.00;;;20.60;99.90;;;;;;26423195;22;20157;-75
2022/05/14 08:13:21;;;;;;;0.20;0.00;;;21.00;99.90;;;;;;26423330;22;20194;-75
2022/05/14 08:33:47;;;;;;;0.37;0.37;;;21.60;99.90;;;;;;26374103;22;20205;-67
2022/05/14 08:43:55;;;;;;;0.20;0.10;;;21.60;99.90;;;;;;26431588;22;20166;-76
2022/05/14 08:54:02;;;;;;;0.20;0.00;;;21.60;99.90;;;;;;26431295;22;20202;-75
2022/05/14 09:04:08;;;;;;;0.20;0.00;;;21.90;99.90;;;;;;26430209;22;20162;-73
2022/05/14 09:14:24;;;;;;;0.23;0.23;;;22.40;99.90;;;;;;26429017;22;20673;-74
2022/05/14 09:24:30;;;;;;;0.20;0.10;;;22.40;99.90;;;;;;26430133;22;20167;-75
2022/05/14 09:34:38;;;;;;;0.60;0.60;;;21.90;99.90;;;;;;26425057;22;20182;-76
2022/05/14 09:44:48;;;;;;;0.20;0.00;;;22.50;99.90;;;;;;26427874;22;20184;-74
2022/05/14 09:54:54;;;;;;;1.30;0.73;;;22.60;99.90;;;;;;26425557;22;20208;-80
2022/05/14 10:05:07;;;;;;;0.20;0.10;;;22.80;99.90;;;;;;26397535;22;20158;-75
2022/05/14 10:15:22;;;;;;;0.20;0.00;;;22.90;99.90;;;;;;26426043;22;20193;-75
2022/05/14 10:36:07;;;;;;;0.20;0.00;;;23.20;99.90;;;;;;26425057;22;20178;-75
2022/05/14 10:46:19;;;;;;;0.20;0.10;;;23.50;99.90;;;;;;26394946;22;20169;-74
2022/05/14 10:56:27;;;;;;;0.20;0.00;;;24.20;99.90;;;;;;26393863;22;20197;-74
2022/05/14 11:06:36;;;;;;;0.40;0.38;;;24.60;99.90;;;;;;26397412;22;20252;-77
2022/05/14 11:16:44;;;;;;;0.20;0.00;;;24.70;99.90;;;;;;26395976;22;20205;-76
2022/05/14 11:26:51;;;;;;;0.20;0.00;;;25.30;99.90;;;;;;26418987;22;20188;-76
2022/05/14 11:37:01;;;;;;;0.20;0.00;;;25.60;99.90;;;;;;26393112;22;20181;-74
2022/05/14 11:47:18;;;;;;;0.20;0.00;;;26.50;99.90;;;;;;26395347;22;20233;-73
2022/05/14 11:57:28;;;;;;;0.20;0.10;;;25.50;99.90;;;;;;26392504;22;20181;-76
2022/05/14 12:07:46;;;;;;;0.20;0.00;;;26.10;99.90;;;;;;26394165;22;20192;-74
2022/05/14 12:17:53;;;;;;;0.20;0.00;;;26.90;99.90;;;;;;26420683;22;20188;-73
2022/05/14 12:27:57;;;;;;;0.20;0.10;;;27.50;99.90;;;;;;26370838;22;20202;-72
2022/05/14 12:38:05;;;;;;;13.25;9.02;;;27.80;99.90;;;;;;26395459;22;20166;-73
2022/05/14 12:48:11;;;;;;;3.80;0.73;;;27.50;99.90;;;;;;26396694;22;20186;-73
2022/05/14 12:58:17;;;;;;;0.20;0.00;;;28.50;99.90;;;;;;26397179;22;20183;-72
2022/05/14 13:08:25;;;;;;;0.20;0.00;;;28.60;99.90;;;;;;26393589;22;20178;-73
2022/05/14 13:18:34;;;;;;;0.20;0.00;;;29.30;99.90;;;;;;26389033;22;20186;-71
2022/05/14 13:28:40;;;;;;;0.20;0.05;;;29.00;99.90;;;;;;26426130;22;20186;-73
2022/05/14 13:38:54;;;;;;;0.63;0.63;;;28.60;99.90;;;;;;26404620;22;20212;-72
2022/05/14 13:48:58;;;;;;;0.20;0.10;;;28.50;99.90;;;;;;26430898;22;20184;-72
2022/05/14 13:59:06;;;;;;;0.20;0.10;;;28.10;99.90;;;;;;26428818;22;21057;-72
2022/05/14 14:09:10;;;;;;;1.73;1.08;;;29.00;99.90;;;;;;26427336;22;20193;-72
2022/05/14 14:19:16;;;;;;;0.20;0.00;;;27.70;99.90;;;;;;26426188;22;20162;-74
2022/05/14 14:29:20;;;;;;;0.20;0.00;;;27.90;99.90;;;;;;26422617;22;20182;-73
2022/05/14 14:39:25;;;;;;;0.20;0.00;;;26.30;99.90;;;;;;26398294;22;20170;-75
2022/05/14 14:49:29;;;;;;;0.47;0.47;;;26.50;99.90;;;;;;26424620;22;20202;-70
2022/05/14 14:59:34;;;;;;;0.20;0.00;;;26.30;99.90;;;;;;26396611;22;20181;-74
2022/05/14 15:09:40;;;;;;;0.20;0.00;;;27.80;99.90;;;;;;26398786;22;20385;-74
2022/05/14 15:19:45;;;;;;;0.20;0.00;;;28.90;99.90;;;;;;26392482;22;20158;-74
2022/05/14 15:29:49;;;;;;;0.20;0.00;;;30.40;99.90;;;;;;26423215;22;20184;-74
2022/05/14 15:39:55;;;;;;;0.20;0.10;;;29.40;99.90;;;;;;26394874;22;20170;-74
2022/05/14 15:50:05;;;;;;;0.20;0.00;;;28.80;99.90;;;;;;26421710;22;20196;-75
2022/05/14 16:00:17;;;;;;;0.20;0.10;;;28.20;99.90;;;;;;26422829;22;20186;-76
2022/05/14 16:20:46;;;;;;;0.20;0.00;;;25.40;99.90;;;;;;26394277;22;20166;-73
2022/05/14 16:30:51;;;;;;;0.20;0.00;;;25.00;99.90;;;;;;26418731;22;20178;-74
2022/05/14 16:40:56;;;;;;;0.65;0.65;;;24.70;99.90;;;;;;26418447;22;20544;-74
2022/05/14 16:51:00;;;;;;;0.20;0.00;;;25.10;99.90;;;;;;26419358;22;20182;-76
2022/05/14 17:01:06;;;;;;;0.20;0.00;;;24.90;99.90;;;;;;26424842;22;20181;-73
2022/05/14 17:11:10;;;;;;;0.20;0.00;;;26.20;99.90;;;;;;26426345;22;20214;-68
2022/05/14 17:21:16;;;;;;;0.20;0.00;;;27.60;99.90;;;;;;26427188;22;20165;-71
2022/05/14 17:31:20;;;;;;;0.20;0.10;;;27.70;99.90;;;;;;26396999;22;20189;-73
2022/05/14 17:41:26;;;;;;;0.20;0.00;;;26.90;99.90;;;;;;26429523;22;20166;-77
2022/05/14 17:51:30;;;;;;;0.20;0.00;;;26.50;99.90;;;;;;26395234;22;20190;-74
2022/05/14 18:01:35;;;;;;;0.20;0.08;;;26.90;99.90;;;;;;26397260;22;20166;-75
2022/05/14 18:11:43;;;;;;;0.20;0.00;;;24.60;99.90;;;;;;26425676;22;20201;-73
2022/05/14 18:21:49;;;;;;;0.20;0.00;;;23.50;99.90;;;;;;26423782;22;20166;-69
2022/05/14 18:31:54;;;;;;;0.20;0.10;;;22.90;99.90;;;;;;26426476;22;20189;-76
2022/05/14 18:42:01;;;;;;;0.20;0.00;;;22.30;99.90;;;;;;26422548;22;20175;-77
2022/05/14 18:52:06;;;;;;;0.20;0.00;;;22.00;99.90;;;;;;26396495;22;20186;-77
2022/05/14 19:02:13;;;;;;;0.20;0.00;;;21.60;99.90;;;;;;26422860;22;20173;-75
2022/05/14 19:12:17;;;;;;;0.20;0.00;;;21.50;99.90;;;;;;26396496;22;20209;-79
2022/05/14 19:22:22;;;;;;;0.20;0.00;;;21.50;99.90;;;;;;26397569;22;20187;-78
2022/05/14 19:32:26;;;;;;;0.20;0.10;;;20.90;99.90;;;;;;26418249;22;20229;-79
2022/05/14 19:42:37;;;;;;;0.20;0.10;;;20.70;99.90;;;;;;26414440;22;20158;-77
2022/05/14 19:52:42;;;;;;;0.20;0.00;;;20.50;99.90;;;;;;26394062;22;20209;-75
2022/05/14 20:03:08;;;;;;;0.20;0.10;;;20.20;99.90;;;;;;26363085;22;20169;-75
2022/05/14 20:13:15;;;;;;;0.20;0.10;;;20.10;99.90;;;;;;26424711;22;20205;-76
2022/05/14 20:23:22;;;;;;;0.20;0.10;;;19.90;99.90;;;;;;26424428;22;20217;-76
2022/05/14 20:33:26;;;;;;;0.20;0.10;;;19.70;99.90;;;;;;26423886;22;20177;-76
2022/05/14 20:43:32;;;;;;;0.20;0.10;;;19.40;99.90;;;;;;26403704;22;20166;-71
2022/05/14 20:53:36;;;;;;;0.20;0.10;;;19.20;99.90;;;;;;26431695;22;20201;-76
2022/05/14 21:03:41;;;;;;;0.20;0.00;;;18.80;99.90;;;;;;26402526;22;20173;-74
2022/05/14 21:13:45;;;;;;;0.20;0.10;;;18.90;99.90;;;;;;26399557;22;20243;-75
2022/05/14 21:23:50;;;;;;;0.20;0.10;;;18.90;99.90;;;;;;26431822;22;20162;-75
2022/05/14 21:44:17;;;;;;;0.20;0.10;;;18.90;99.90;;;;;;26376882;22;20177;-74
2022/05/14 21:54:21;;;;;;;0.20;0.00;;;18.80;99.90;;;;;;26402260;22;20194;-77
2022/05/14 22:04:27;;;;;;;0.20;0.10;;;18.70;99.90;;;;;;26431285;22;20181;-75
2022/05/14 22:14:31;;;;;;;0.20;0.10;;;18.70;99.90;;;;;;26428973;22;20209;-74
2022/05/14 22:24:36;;;;;;;0.20;0.07;;;18.50;99.90;;;;;;26430521;22;20517;-74
2022/05/14 22:34:40;;;;;;;0.20;0.10;;;18.60;99.90;;;;;;26403393;22;20190;-75
2022/05/14 22:44:46;;;;;;;0.20;0.00;;;18.10;99.90;;;;;;26431644;22;20166;-73
2022/05/14 22:54:50;;;;;;;0.20;0.00;;;18.20;99.90;;;;;;26431281;22;20197;-74
2022/05/14 23:04:55;;;;;;;0.20;0.10;;;18.10;99.90;;;;;;26402910;22;20177;-72
2022/05/14 23:14:59;;;;;;;0.20;0.10;;;17.90;99.90;;;;;;26429068;22;20209;-73
2022/05/14 23:25:06;;;;;;;0.20;0.07;;;17.80;99.90;;;;;;26405049;22;20173;-73
2022/05/14 23:35:13;;;;;;;0.20;0.10;;;17.70;99.90;;;;;;26400125;22;20174;-74
2022/05/14 23:45:21;;;;;;;0.20;0.10;;;17.60;99.90;;;;;;26430464;22;20177;-74
2022/05/14 23:55:24;;;;;;;0.20;0.10;;;17.50;99.90;;;;;;26430372;22;20193;-73
